Nearby METAR Reports

 

KHOT - Hot Springs, Arkansas, USA
Distance from station: W 8mi, 14km
Updated: 02/17/2019 4:53am
Mist, Overcast
Mist, Overcast
 Wind from calm
Wind: Calm
Temperature: 37°F , 3°C
Dew Point: 37°F , 3°C
Humidity: 100%
Barometer: 29.74 inHg , 1007.1 hPa
Summary: Mist
Clouds: Overcast
Visibility: 5 miles , 8 km
Cloud details: Mostly cloudy 600 ft
Overcast 1400 ft
2019/02/17 10:53 KHOT 171053Z AUTO 00000KT 5SM BR BKN006 OVC014 03/03 A2974 RMK AO2 SLP073 T00330033
KMWT - Mount Ida, Arkansas, USA
Distance from station: W 36mi, 58km
Updated: 02/17/2019 4:53am
Overcast
Overcast
 Wind from NW
Wind: NW 3 mph , 6 km/h
Temperature: 37°F , 3°C
Dew Point: 36°F , 2°C
Humidity: 93%
Barometer: 29.72 inHg , 1006.4 hPa
Clouds: Overcast
Visibility: 10 miles , 16 km
Cloud details: Partly cloudy 400 ft
Overcast 1600 ft
2019/02/17 10:53 KMWT 171053Z AUTO 32003KT 10SM SCT004 OVC016 03/02 A2972 RMK AO2 SLP072 T00280022 $
 
KLIT - Little Rock, Arkansas, USA
Distance from station: ENE 45mi, 73km
Updated: 02/17/2019 4:53am
Light drizzle, Mist, Overcast
Light drizzle, Mist, Overcast
 Wind from N
Wind: N 6 mph , 9 km/h
Temperature: 36°F , 2°C
Wind Chill: 31°F , -1°C
Dew Point: 34°F , 1°C
Humidity: 93%
Barometer: 29.76 inHg , 1007.8 hPa
Summary: Light drizzle, Mist
Clouds: Overcast
Visibility: 3 miles , 5 km
Cloud details: Overcast 500 ft
2019/02/17 10:53 KLIT 171053Z 01005KT 3SM -DZ BR OVC005 02/01 A2976 RMK AO2 SLP081 P0000 T00220011 $
KLRF - Little Rock Afb, Arkansas, USA
Distance from station: NE 56mi, 89km
Updated: 02/17/2019 4:56am
Overcast
Overcast
 Wind from calm
Wind: Calm
Temperature: 36°F , 2°C
Dew Point: 36°F , 2°C
Humidity: 100%
Barometer: 29.74 inHg , 1007.1 hPa
Clouds: Overcast
Visibility: 10 miles , 16 km
Cloud details: Partly cloudy 300 ft
Overcast 1100 ft
2019/02/17 10:56 KLRF 171056Z AUTO 00000KT 10SM SCT003 OVC011 02/02 A2974 RMK AO2 RAE17DZB17E18 CIG 004V011 SLP076 P0001 T00220021